createdAt,value
2022-10-16T00:02:34.669Z,13.10
2022-10-16T00:05:44.793Z,16.00
2022-10-16T00:08:48.530Z,14.90
2022-10-16T00:11:51.542Z,18.10
2022-10-16T00:14:54.476Z,13.30
2022-10-16T00:17:57.360Z,12.50
2022-10-16T00:21:21.434Z,14.30
2022-10-16T00:24:24.302Z,13.30
2022-10-16T00:27:27.167Z,15.10
2022-10-16T00:30:30.181Z,15.40
2022-10-16T00:33:33.633Z,14.60
2022-10-16T00:36:36.480Z,15.60
2022-10-16T00:39:39.839Z,14.50
2022-10-16T00:42:42.636Z,15.50
2022-10-16T00:45:45.864Z,14.90
2022-10-16T00:48:53.789Z,16.20
2022-10-16T00:51:56.794Z,15.00
2022-10-16T00:55:00.975Z,15.20
2022-10-16T00:58:03.808Z,16.20
2022-10-16T01:01:06.869Z,16.90
2022-10-16T01:04:09.874Z,16.60
2022-10-16T01:07:25.806Z,16.60
2022-10-16T01:10:39.353Z,16.70
2022-10-16T01:13:47.045Z,16.40
2022-10-16T01:17:00.770Z,17.40
2022-10-16T01:20:19.273Z,16.00
2022-10-16T01:23:25.088Z,14.60
2022-10-16T01:27:04.923Z,17.00
2022-10-16T01:30:31.784Z,17.80
2022-10-16T01:33:45.725Z,16.20
2022-10-16T01:36:54.376Z,17.20
2022-10-16T01:40:01.381Z,15.30
2022-10-16T01:43:09.489Z,18.60
2022-10-16T01:46:17.021Z,19.70
2022-10-16T01:49:23.151Z,16.10
2022-10-16T01:52:29.361Z,15.90
2022-10-16T01:55:36.823Z,18.20
2022-10-16T01:58:47.357Z,17.60
2022-10-16T02:01:53.848Z,18.70
2022-10-16T02:05:04.365Z,16.70
2022-10-16T02:08:07.487Z,17.30
2022-10-16T02:11:10.524Z,19.90
2022-10-16T02:14:13.325Z,30.90
2022-10-16T02:17:18.472Z,33.40
2022-10-16T02:20:26.254Z,31.30
2022-10-16T02:23:47.160Z,20.40
2022-10-16T02:26:52.748Z,21.70
2022-10-16T02:30:12.716Z,22.40
2022-10-16T02:33:17.502Z,22.60
2022-10-16T02:36:20.633Z,19.90
2022-10-16T02:39:23.545Z,21.80
2022-10-16T02:42:37.381Z,24.20
2022-10-16T02:45:40.605Z,22.80
2022-10-16T02:48:43.458Z,30.90
2022-10-16T02:51:46.224Z,27.20
2022-10-16T02:54:49.047Z,30.10
2022-10-16T02:57:51.886Z,38.60
2022-10-16T03:00:56.289Z,31.50
2022-10-16T03:03:59.216Z,32.80
2022-10-16T03:07:02.061Z,29.80
2022-10-16T03:10:05.412Z,27.80
2022-10-16T03:13:08.225Z,22.20
2022-10-16T03:16:11.222Z,20.20
2022-10-16T03:19:14.098Z,21.60
2022-10-16T03:22:16.908Z,19.30
2022-10-16T03:25:19.814Z,27.50
2022-10-16T03:28:22.683Z,36.40
2022-10-16T03:31:25.470Z,33.80
2022-10-16T03:34:28.964Z,34.00
2022-10-16T03:37:31.800Z,28.90
2022-10-16T03:40:34.645Z,25.00
2022-10-16T03:43:37.476Z,22.40
2022-10-16T03:46:40.523Z,20.50
2022-10-16T03:49:43.377Z,21.70
2022-10-16T03:52:46.689Z,21.90
2022-10-16T03:55:49.541Z,24.20
2022-10-16T03:58:52.658Z,17.80
2022-10-16T04:01:55.817Z,23.20
2022-10-16T04:04:58.593Z,18.00
2022-10-16T04:08:01.447Z,19.30
2022-10-16T04:11:04.588Z,17.80
2022-10-16T04:14:07.438Z,15.90
2022-10-16T04:17:10.241Z,20.20
2022-10-16T04:20:13.082Z,18.70
2022-10-16T04:23:15.887Z,19.80
2022-10-16T04:26:18.889Z,18.50
2022-10-16T04:29:21.728Z,19.40
2022-10-16T04:32:24.584Z,20.00
2022-10-16T04:35:27.350Z,18.40
2022-10-16T04:38:30.977Z,19.40
2022-10-16T04:41:33.808Z,18.40
2022-10-16T04:44:36.593Z,17.80
2022-10-16T04:47:39.375Z,19.90
2022-10-16T04:50:42.636Z,20.10
2022-10-16T04:53:45.717Z,22.00
2022-10-16T04:56:48.964Z,25.60
2022-10-16T04:59:51.897Z,25.20
2022-10-16T05:02:54.789Z,23.90
2022-10-16T05:05:57.758Z,25.10
2022-10-16T05:09:00.766Z,28.80
2022-10-16T05:12:04.570Z,24.90
2022-10-16T05:15:07.947Z,23.30
2022-10-16T05:18:10.754Z,22.00
2022-10-16T05:21:13.575Z,22.70
2022-10-16T05:24:17.098Z,27.10
2022-10-16T05:27:20.180Z,21.40
2022-10-16T05:30:23.401Z,25.20
2022-10-16T05:33:27.091Z,20.70
2022-10-16T05:36:30.088Z,23.30
2022-10-16T05:39:32.968Z,20.90
2022-10-16T05:42:35.772Z,27.10
2022-10-16T05:45:38.652Z,22.40
2022-10-16T05:48:41.450Z,23.60
2022-10-16T05:51:44.249Z,22.60
2022-10-16T05:54:47.107Z,24.10
2022-10-16T05:57:49.970Z,22.80
2022-10-16T06:01:02.088Z,23.00
2022-10-16T06:04:05.355Z,22.10
2022-10-16T06:07:08.246Z,21.60
2022-10-16T06:10:11.077Z,18.90
2022-10-16T06:13:14.829Z,19.10
2022-10-16T06:16:18.340Z,20.30
2022-10-16T06:19:21.443Z,22.00
2022-10-16T06:22:24.182Z,21.80
2022-10-16T06:25:27.028Z,19.70
2022-10-16T06:28:29.850Z,18.80
2022-10-16T06:31:34.475Z,18.80
2022-10-16T06:34:38.509Z,17.10
2022-10-16T06:37:43.616Z,24.90
2022-10-16T06:40:46.719Z,18.00
2022-10-16T06:43:50.066Z,20.80
2022-10-16T06:46:53.831Z,16.20
2022-10-16T06:49:56.803Z,16.90
2022-10-16T06:52:59.582Z,19.20
2022-10-16T06:56:17.873Z,18.60
2022-10-16T06:59:21.173Z,19.30
2022-10-16T07:02:24.333Z,21.10
2022-10-16T07:05:27.449Z,17.70
2022-10-16T07:08:41.275Z,16.50
2022-10-16T07:11:44.562Z,19.00
2022-10-16T07:14:47.432Z,18.40
2022-10-16T07:17:51.137Z,14.90
2022-10-16T07:20:54.387Z,21.50
2022-10-16T07:24:00.197Z,21.50
2022-10-16T07:27:03.107Z,20.50
2022-10-16T07:30:09.128Z,16.00
2022-10-16T07:33:12.273Z,15.90
2022-10-16T07:36:19.110Z,16.80
2022-10-16T07:39:21.911Z,16.90
2022-10-16T07:42:24.996Z,19.20
2022-10-16T07:45:27.944Z,20.90
2022-10-16T07:48:33.344Z,18.80
2022-10-16T07:51:36.249Z,16.00
2022-10-16T07:54:39.170Z,23.20
2022-10-16T07:57:42.006Z,15.10
2022-10-16T08:00:44.925Z,12.80
2022-10-16T08:03:50.893Z,13.60
2022-10-16T08:06:55.351Z,15.70
2022-10-16T08:09:59.735Z,16.30
2022-10-16T08:13:02.667Z,18.10
2022-10-16T08:16:09.449Z,16.20
2022-10-16T08:19:12.265Z,17.40
2022-10-16T08:22:15.724Z,21.90
2022-10-16T08:25:18.663Z,13.20
2022-10-16T08:28:21.891Z,16.90
2022-10-16T08:31:27.333Z,18.30
2022-10-16T08:34:30.652Z,17.60
2022-10-16T08:37:34.058Z,16.80
2022-10-16T08:40:38.257Z,18.50
2022-10-16T08:44:02.881Z,16.40
2022-10-16T08:47:20.977Z,19.00
2022-10-16T08:50:28.958Z,17.60
2022-10-16T08:53:37.113Z,16.50
2022-10-16T08:56:40.087Z,14.80
2022-10-16T08:59:43.107Z,14.20
2022-10-16T09:03:11.916Z,14.80
2022-10-16T09:06:32.055Z,16.50
2022-10-16T09:09:53.557Z,14.30
2022-10-16T09:13:17.236Z,13.70
2022-10-16T09:16:36.914Z,16.00
2022-10-16T09:19:49.311Z,14.40
2022-10-16T09:23:14.720Z,13.90
2022-10-16T09:26:20.243Z,14.60
2022-10-16T09:29:26.319Z,21.90
2022-10-16T09:32:29.923Z,14.40
2022-10-16T09:35:45.603Z,15.20
2022-10-16T09:38:48.606Z,14.50
2022-10-16T09:41:52.288Z,12.70
2022-10-16T09:44:55.367Z,12.90
2022-10-16T09:47:58.358Z,16.30
2022-10-16T09:51:04.802Z,15.70
2022-10-16T09:54:10.659Z,16.10
2022-10-16T09:57:14.462Z,15.70
2022-10-16T10:00:18.985Z,16.10
2022-10-16T10:03:37.317Z,14.70
2022-10-16T10:06:56.315Z,13.80
2022-10-16T10:09:59.217Z,14.10
2022-10-16T10:13:02.308Z,15.40
2022-10-16T10:16:05.382Z,15.30
2022-10-16T10:19:17.386Z,14.00
2022-10-16T10:22:32.452Z,14.60
2022-10-16T10:25:59.267Z,14.90
2022-10-16T10:29:34.334Z,18.70
2022-10-16T10:32:49.150Z,14.30
2022-10-16T10:36:30.001Z,13.60
2022-10-16T10:39:59.821Z,12.80
2022-10-16T10:43:14.830Z,12.60
2022-10-16T10:46:35.694Z,18.30
2022-10-16T10:49:43.246Z,17.90
2022-10-16T10:53:20.001Z,16.70
2022-10-16T10:56:28.924Z,15.00
2022-10-16T11:00:13.897Z,15.50
2022-10-16T11:03:39.032Z,17.50
2022-10-16T11:06:49.681Z,14.50
2022-10-16T11:10:00.485Z,13.30
2022-10-16T11:13:21.363Z,13.30
2022-10-16T11:16:30.019Z,13.30
2022-10-16T11:19:50.357Z,13.90
2022-10-16T11:23:17.310Z,13.70
2022-10-16T11:26:34.072Z,11.60
2022-10-16T11:34:27.392Z,12.60
2022-10-16T11:37:42.192Z,15.90
2022-10-16T11:40:49.800Z,13.70
2022-10-16T11:44:17.031Z,14.80
2022-10-16T11:51:08.794Z,13.80
2022-10-16T11:54:44.435Z,10.40
2022-10-16T11:58:03.923Z,13.10
2022-10-16T12:01:09.656Z,11.70
2022-10-16T12:04:48.229Z,12.30
2022-10-16T12:08:03.271Z,11.00
2022-10-16T12:11:28.798Z,11.50
2022-10-16T12:15:11.259Z,12.80
2022-10-16T12:18:04.551Z,11.80
2022-10-16T12:21:08.521Z,11.10
2022-10-16T12:24:29.518Z,16.10
2022-10-16T12:27:33.985Z,13.00
2022-10-16T12:30:38.620Z,10.30
2022-10-16T12:33:52.828Z,12.10
2022-10-16T12:37:08.490Z,14.60
2022-10-16T12:40:24.362Z,15.20
2022-10-16T12:43:33.404Z,13.70
2022-10-16T12:46:40.572Z,12.80
2022-10-16T12:49:50.208Z,12.90
2022-10-16T12:52:53.542Z,12.40
2022-10-16T12:56:14.404Z,13.70
2022-10-16T12:59:39.468Z,13.30
2022-10-16T13:03:16.639Z,13.80
2022-10-16T13:06:35.377Z,12.30
2022-10-16T13:09:48.109Z,11.30
2022-10-16T13:13:25.589Z,15.40
2022-10-16T13:16:43.379Z,12.70
2022-10-16T13:20:20.280Z,11.30
2022-10-16T13:23:26.567Z,13.60
2022-10-16T13:26:44.252Z,13.00
2022-10-16T13:29:54.393Z,12.00
2022-10-16T13:33:07.742Z,9.90
2022-10-16T13:36:25.696Z,10.70
2022-10-16T13:39:31.653Z,11.50
2022-10-16T13:42:34.709Z,11.40
2022-10-16T13:45:37.609Z,12.00
2022-10-16T13:48:40.982Z,10.70
2022-10-16T13:51:56.049Z,12.50
2022-10-16T13:55:01.777Z,12.90
2022-10-16T13:58:10.509Z,12.20
2022-10-16T14:01:26.221Z,12.30
2022-10-16T14:04:35.206Z,14.80
2022-10-16T14:07:39.654Z,10.70
2022-10-16T14:10:43.588Z,10.80
2022-10-16T14:13:49.569Z,14.10
2022-10-16T14:16:52.461Z,12.00
2022-10-16T14:20:00.855Z,11.80
2022-10-16T14:23:31.452Z,13.70
2022-10-16T14:26:50.548Z,12.40
2022-10-16T14:30:13.582Z,13.60
2022-10-16T14:33:36.624Z,11.90
2022-10-16T14:36:42.139Z,12.20
2022-10-16T14:39:50.366Z,13.90
2022-10-16T14:42:54.156Z,12.40
2022-10-16T14:45:58.163Z,11.50
2022-10-16T14:49:06.185Z,15.40
2022-10-16T14:52:13.470Z,11.90
2022-10-16T14:55:16.720Z,13.60
2022-10-16T14:58:23.542Z,18.20
2022-10-16T15:01:27.007Z,19.20
2022-10-16T15:04:30.379Z,18.30
2022-10-16T15:07:33.716Z,20.90
2022-10-16T15:10:43.384Z,17.00
2022-10-16T15:13:47.173Z,16.50
2022-10-16T15:16:50.015Z,21.60
2022-10-16T15:19:52.938Z,26.70
2022-10-16T15:22:55.743Z,24.00
2022-10-16T15:25:58.703Z,21.60
2022-10-16T15:29:01.575Z,19.00
2022-10-16T15:32:04.637Z,15.10
2022-10-16T15:35:09.933Z,16.30
2022-10-16T15:38:14.785Z,15.60
2022-10-16T15:41:18.042Z,17.10
2022-10-16T15:44:24.020Z,22.50
2022-10-16T15:47:26.970Z,17.30
2022-10-16T15:50:31.319Z,17.40
2022-10-16T15:53:35.108Z,18.40
2022-10-16T15:56:38.360Z,27.60
2022-10-16T15:59:41.300Z,24.70
2022-10-16T16:02:50.272Z,23.90
2022-10-16T16:05:53.061Z,19.40
2022-10-16T16:08:56.809Z,21.20
2022-10-16T16:12:01.917Z,24.00
2022-10-16T16:15:06.279Z,25.60
2022-10-16T16:18:10.770Z,20.10
2022-10-16T16:21:14.290Z,19.20
2022-10-16T16:24:17.347Z,17.90
2022-10-16T16:27:20.991Z,24.90
2022-10-16T16:30:28.082Z,25.60
2022-10-16T16:33:32.500Z,24.70
2022-10-16T16:36:36.312Z,22.20
2022-10-16T16:39:39.366Z,22.30
2022-10-16T16:42:43.617Z,23.20
2022-10-16T16:45:46.654Z,24.00
2022-10-16T16:48:54.619Z,21.50
2022-10-16T16:51:58.556Z,21.70
2022-10-16T16:55:03.608Z,21.40
2022-10-16T16:58:06.626Z,22.20
2022-10-16T17:01:26.757Z,23.30
2022-10-16T17:04:30.632Z,22.40
2022-10-16T17:07:35.444Z,20.70
2022-10-16T17:10:44.498Z,22.50
2022-10-16T17:13:50.015Z,22.30
2022-10-16T17:16:55.573Z,22.50
2022-10-16T17:19:58.515Z,24.50
2022-10-16T17:23:02.970Z,21.80
2022-10-16T17:26:06.782Z,39.70
2022-10-16T17:29:12.350Z,27.50
2022-10-16T17:32:15.306Z,21.40
2022-10-16T17:35:18.215Z,21.90
2022-10-16T17:38:21.212Z,24.30
2022-10-16T17:41:24.911Z,23.10
2022-10-16T17:44:27.804Z,27.20
2022-10-16T17:47:30.644Z,25.00
2022-10-16T17:50:33.492Z,23.30
2022-10-16T17:53:37.425Z,25.40
2022-10-16T18:11:09.863Z,21.90
2022-10-16T18:14:15.059Z,25.60
2022-10-16T18:17:19.455Z,24.90
2022-10-16T18:20:22.813Z,29.30
2022-10-16T18:23:25.808Z,25.50
2022-10-16T18:26:29.089Z,22.90
2022-10-16T18:29:31.929Z,21.60
2022-10-16T18:32:34.807Z,26.00
2022-10-16T18:35:37.862Z,23.30
2022-10-16T18:38:41.444Z,24.80
2022-10-16T18:41:44.912Z,24.20
2022-10-16T18:44:50.389Z,24.50
2022-10-16T18:47:56.124Z,25.20
2022-10-16T18:51:09.825Z,33.90
2022-10-16T18:54:13.164Z,26.90
2022-10-16T18:57:15.964Z,24.80
2022-10-16T19:00:18.810Z,25.50
2022-10-16T19:03:21.745Z,21.40
2022-10-16T19:06:26.598Z,21.30
2022-10-16T19:09:29.492Z,23.70
2022-10-16T19:12:32.681Z,23.50
2022-10-16T19:15:42.803Z,23.80
2022-10-16T19:18:48.885Z,23.30
2022-10-16T19:21:58.132Z,24.00
2022-10-16T19:25:01.076Z,27.20
2022-10-16T19:28:07.587Z,24.30
2022-10-16T19:31:13.270Z,24.30
2022-10-16T19:34:16.404Z,25.70
2022-10-16T19:37:25.863Z,24.10
2022-10-16T19:40:29.257Z,23.60
2022-10-16T19:43:32.399Z,22.20
2022-10-16T19:46:36.197Z,25.10
2022-10-16T19:49:39.081Z,25.70
2022-10-16T19:52:42.407Z,23.30
2022-10-16T19:55:45.904Z,24.10
2022-10-16T19:58:49.602Z,24.40
2022-10-16T20:01:52.408Z,26.20
2022-10-16T20:04:55.344Z,27.50
2022-10-16T20:08:00.006Z,24.90
2022-10-16T20:11:04.225Z,20.50
2022-10-16T20:14:07.911Z,20.80
2022-10-16T20:17:11.060Z,21.70
2022-10-16T20:20:14.355Z,20.10
2022-10-16T20:23:18.625Z,23.10
2022-10-16T20:26:25.029Z,21.60
2022-10-16T20:29:28.276Z,22.20
2022-10-16T20:32:31.152Z,19.20
2022-10-16T20:35:42.479Z,21.40
2022-10-16T20:38:45.780Z,18.90
2022-10-16T20:41:48.661Z,18.40
2022-10-16T20:44:51.493Z,15.90
2022-10-16T20:47:54.392Z,16.70
2022-10-16T20:50:57.368Z,19.90
2022-10-16T20:54:03.065Z,22.30
2022-10-16T20:57:05.969Z,17.80
2022-10-16T21:00:09.233Z,17.20
2022-10-16T21:03:12.459Z,18.20
2022-10-16T21:06:15.289Z,19.70
2022-10-16T21:09:18.213Z,20.70
2022-10-16T21:12:21.080Z,18.90
2022-10-16T21:15:23.947Z,20.60
2022-10-16T21:18:27.607Z,18.80
2022-10-16T21:21:33.493Z,21.80
2022-10-16T21:24:37.903Z,19.90
2022-10-16T21:27:42.032Z,20.30
2022-10-16T21:30:45.192Z,21.60
2022-10-16T21:33:49.242Z,19.40
2022-10-16T21:36:52.068Z,21.30
2022-10-16T21:39:56.150Z,20.20
2022-10-16T21:42:59.044Z,21.40
2022-10-16T21:46:02.514Z,24.50
2022-10-16T21:49:07.710Z,23.40
2022-10-16T21:52:11.807Z,22.70
2022-10-16T21:55:14.773Z,22.10
2022-10-16T21:58:17.624Z,22.60
2022-10-16T22:01:23.906Z,23.50
2022-10-16T22:04:26.748Z,21.10
2022-10-16T22:07:30.142Z,23.00
2022-10-16T22:10:33.304Z,20.20
2022-10-16T22:13:36.860Z,22.10
2022-10-16T22:16:39.829Z,20.30
2022-10-16T22:19:42.629Z,24.20
2022-10-16T22:22:45.494Z,22.40
2022-10-16T22:25:48.501Z,23.90
2022-10-16T22:28:51.831Z,25.50
2022-10-16T22:31:54.758Z,24.20
2022-10-16T22:34:57.533Z,22.90
2022-10-16T22:38:00.373Z,23.50
2022-10-16T22:41:08.660Z,21.20
2022-10-16T22:44:13.264Z,21.70
2022-10-16T22:47:17.314Z,21.50
2022-10-16T22:50:20.135Z,24.90
2022-10-16T22:53:23.001Z,22.70
2022-10-16T22:56:26.427Z,22.20
2022-10-16T22:59:29.259Z,23.10
2022-10-16T23:02:32.168Z,20.60
2022-10-16T23:05:38.904Z,23.60
2022-10-16T23:08:42.236Z,21.10
2022-10-16T23:11:45.307Z,23.10
2022-10-16T23:14:48.326Z,24.80
2022-10-16T23:17:51.269Z,24.80
2022-10-16T23:20:54.089Z,25.10
2022-10-16T23:23:56.982Z,26.30
2022-10-16T23:26:59.812Z,26.00
2022-10-16T23:30:02.676Z,26.40
2022-10-16T23:33:05.536Z,26.30
2022-10-16T23:36:11.398Z,21.80
2022-10-16T23:39:14.319Z,23.10
2022-10-16T23:42:17.681Z,22.70
2022-10-16T23:45:20.469Z,23.10
2022-10-16T23:48:23.486Z,23.80
2022-10-16T23:51:26.440Z,21.00
2022-10-16T23:54:29.463Z,23.10
2022-10-16T23:57:32.293Z,24.00
